createdAt,value
2018-08-06T00:00:27.894Z,99.90
2018-08-06T00:02:57.016Z,99.90
2018-08-06T00:05:26.134Z,99.90
2018-08-06T00:07:55.494Z,99.90
2018-08-06T00:10:25.878Z,99.90
2018-08-06T00:12:55.062Z,99.90
2018-08-06T00:15:24.427Z,99.90
2018-08-06T00:17:53.595Z,99.90
2018-08-06T00:20:22.797Z,99.90
2018-08-06T00:22:52.120Z,99.90
2018-08-06T00:25:21.386Z,99.90
2018-08-06T00:27:50.580Z,99.90
2018-08-06T00:30:21.106Z,99.90
2018-08-06T00:32:51.078Z,99.90
2018-08-06T00:35:20.444Z,99.90
2018-08-06T00:37:50.203Z,99.90
2018-08-06T00:40:20.919Z,99.90
2018-08-06T00:42:50.751Z,99.90
2018-08-06T00:45:21.101Z,99.90
2018-08-06T00:47:50.604Z,99.90
2018-08-06T00:50:19.778Z,99.90
2018-08-06T00:52:48.856Z,99.90
2018-08-06T00:55:19.184Z,99.90
2018-08-06T00:57:48.507Z,99.90
2018-08-06T01:00:19.139Z,99.90
2018-08-06T01:02:48.451Z,99.90
2018-08-06T01:05:18.165Z,99.90
2018-08-06T01:07:47.415Z,99.90
2018-08-06T01:10:18.153Z,99.90
2018-08-06T01:12:47.309Z,99.90
2018-08-06T01:15:17.786Z,99.90
2018-08-06T01:17:46.995Z,99.90
2018-08-06T01:20:16.507Z,99.90
2018-08-06T01:22:46.226Z,99.90
2018-08-06T01:25:15.703Z,99.90
2018-08-06T01:27:45.110Z,99.90
2018-08-06T01:30:15.258Z,99.90
2018-08-06T01:32:44.508Z,99.90
2018-08-06T01:35:13.751Z,99.90
2018-08-06T01:37:42.858Z,99.90
2018-08-06T01:40:13.807Z,99.90
2018-08-06T01:42:43.306Z,99.90
2018-08-06T01:45:15.001Z,99.90
2018-08-06T01:47:44.524Z,99.90
2018-08-06T01:50:14.748Z,99.90
2018-08-06T01:52:43.937Z,99.90
2018-08-06T01:55:13.163Z,99.90
2018-08-06T01:57:42.451Z,99.90
2018-08-06T02:00:14.017Z,99.90
2018-08-06T02:02:43.389Z,99.90
2018-08-06T02:05:12.902Z,99.90
2018-08-06T02:07:42.236Z,99.90
2018-08-06T02:10:14.371Z,99.90
2018-08-06T02:12:44.358Z,99.90
2018-08-06T02:15:13.959Z,99.90
2018-08-06T02:17:43.077Z,99.90
2018-08-06T02:20:15.721Z,99.90
2018-08-06T02:22:46.297Z,99.90
2018-08-06T02:25:15.851Z,99.90
2018-08-06T02:27:45.271Z,99.90
2018-08-06T02:30:15.565Z,99.90
2018-08-06T02:32:45.059Z,99.90
2018-08-06T02:35:15.203Z,99.90
2018-08-06T02:37:44.964Z,99.90
2018-08-06T02:40:18.256Z,99.90
2018-08-06T02:42:47.622Z,99.90
2018-08-06T02:45:17.291Z,99.90
2018-08-06T02:47:46.610Z,99.90
2018-08-06T02:50:15.718Z,99.90
2018-08-06T02:52:45.314Z,99.90
2018-08-06T02:55:15.794Z,99.90
2018-08-06T02:57:44.926Z,99.90
2018-08-06T03:00:16.601Z,99.90
2018-08-06T03:02:46.707Z,99.90
2018-08-06T03:05:17.137Z,99.90
2018-08-06T03:07:46.779Z,99.90
2018-08-06T03:10:16.302Z,99.90
2018-08-06T03:12:46.427Z,99.90
2018-08-06T03:15:15.614Z,99.90
2018-08-06T03:17:44.714Z,99.90
2018-08-06T03:20:14.416Z,99.90
2018-08-06T03:22:43.545Z,99.90
2018-08-06T03:25:15.395Z,99.90
2018-08-06T03:27:45.199Z,99.90
2018-08-06T03:30:16.077Z,99.90
2018-08-06T03:32:46.972Z,99.90
2018-08-06T03:35:16.352Z,99.90
2018-08-06T03:37:45.506Z,99.90
2018-08-06T03:40:14.695Z,99.90
2018-08-06T03:42:43.983Z,99.90
2018-08-06T03:45:13.360Z,99.90
2018-08-06T03:47:43.519Z,99.90
2018-08-06T03:50:13.794Z,99.90
2018-08-06T03:52:43.492Z,99.90
2018-08-06T03:55:13.026Z,99.90
2018-08-06T03:57:42.414Z,99.90
2018-08-06T04:00:13.972Z,99.90
2018-08-06T04:02:43.715Z,99.90
2018-08-06T04:05:14.149Z,99.90
2018-08-06T04:07:43.378Z,99.90
2018-08-06T04:10:14.595Z,99.90
2018-08-06T04:12:43.924Z,99.90
2018-08-06T04:15:13.802Z,99.90
2018-08-06T04:17:43.696Z,99.90
2018-08-06T04:20:13.703Z,99.90
2018-08-06T04:22:43.498Z,99.90
2018-08-06T04:25:12.949Z,99.90
2018-08-06T04:27:42.175Z,99.90
2018-08-06T04:30:13.427Z,99.90
2018-08-06T04:32:43.321Z,99.90
2018-08-06T04:35:12.576Z,99.90
2018-08-06T04:37:42.486Z,99.90
2018-08-06T04:40:12.632Z,99.90
2018-08-06T04:42:42.852Z,99.90
2018-08-06T04:45:12.444Z,99.90
2018-08-06T04:47:42.155Z,99.90
2018-08-06T04:50:13.146Z,99.90
2018-08-06T04:52:42.344Z,99.90
2018-08-06T04:55:13.111Z,99.90
2018-08-06T04:57:42.503Z,99.90
2018-08-06T05:00:13.598Z,99.70
2018-08-06T05:02:43.475Z,99.20
2018-08-06T05:05:12.928Z,97.40
2018-08-06T05:07:42.101Z,96.80
2018-08-06T05:10:11.395Z,96.00
2018-08-06T05:12:40.586Z,95.40
2018-08-06T05:15:09.859Z,94.60
2018-08-06T05:17:39.243Z,95.00
2018-08-06T05:20:08.430Z,95.90
2018-08-06T05:25:06.639Z,98.60
2018-08-06T05:27:36.038Z,99.90
2018-08-06T05:30:07.559Z,99.90
2018-08-06T05:32:36.764Z,99.90
2018-08-06T05:35:06.158Z,99.90
2018-08-06T05:37:35.649Z,99.90
2018-08-06T05:40:05.801Z,99.90
2018-08-06T05:42:34.940Z,99.90
2018-08-06T05:45:05.376Z,99.90
2018-08-06T05:47:34.766Z,99.90
2018-08-06T05:50:05.263Z,99.90
2018-08-06T05:52:34.463Z,99.90
2018-08-06T05:55:03.868Z,99.90
2018-08-06T05:57:33.096Z,99.90
2018-08-06T06:00:02.361Z,99.90
2018-08-06T06:02:31.732Z,99.90
2018-08-06T06:05:00.864Z,99.90
2018-08-06T06:07:30.031Z,99.90
2018-08-06T06:09:59.327Z,99.90
2018-08-06T06:12:28.635Z,99.90
2018-08-06T06:14:57.825Z,99.90
2018-08-06T06:17:27.013Z,99.90
2018-08-06T06:19:56.279Z,99.90
2018-08-06T06:22:25.678Z,99.90
2018-08-06T06:24:54.927Z,99.90
2018-08-06T06:27:24.338Z,99.90
2018-08-06T06:29:53.401Z,99.90
2018-08-06T06:32:22.589Z,99.90
2018-08-06T06:34:51.852Z,99.90
2018-08-06T06:37:21.472Z,99.90
2018-08-06T06:39:52.411Z,99.90
2018-08-06T06:42:21.512Z,99.90
2018-08-06T06:44:50.736Z,99.90
2018-08-06T06:47:19.859Z,99.90
2018-08-06T06:49:49.000Z,99.90
2018-08-06T06:52:18.271Z,99.90
2018-08-06T06:54:47.473Z,99.90
2018-08-06T06:57:16.662Z,99.90
2018-08-06T07:02:14.467Z,99.90
2018-08-06T07:04:43.635Z,99.90
2018-08-06T07:07:13.056Z,99.90
2018-08-06T07:09:42.255Z,99.90
2018-08-06T07:12:11.454Z,99.90
2018-08-06T07:14:40.883Z,99.90
2018-08-06T07:17:10.402Z,99.90
2018-08-06T07:19:39.524Z,99.90
2018-08-06T07:22:08.874Z,99.90
2018-08-06T07:24:38.232Z,99.90
2018-08-06T07:27:07.460Z,99.90
2018-08-06T07:29:36.907Z,99.90
2018-08-06T07:32:06.151Z,99.90
2018-08-06T07:34:35.470Z,99.90
2018-08-06T07:37:04.668Z,99.90
2018-08-06T07:39:34.071Z,99.50
2018-08-06T07:42:03.178Z,98.70
2018-08-06T07:44:32.584Z,98.90
2018-08-06T07:47:01.701Z,97.80
2018-08-06T07:49:31.104Z,97.80
2018-08-06T07:52:00.248Z,97.30
2018-08-06T07:54:29.466Z,96.90
2018-08-06T07:56:58.600Z,96.60
2018-08-06T07:59:28.023Z,96.40
2018-08-06T08:01:57.311Z,96.10
2018-08-06T08:04:26.571Z,95.90
2018-08-06T08:06:55.836Z,95.60
2018-08-06T08:09:25.292Z,95.40
2018-08-06T08:11:54.391Z,94.70
2018-08-06T08:14:23.682Z,94.90
2018-08-06T08:16:53.168Z,94.80
2018-08-06T08:19:22.619Z,94.20
2018-08-06T08:21:52.066Z,94.00
2018-08-06T08:24:21.180Z,94.00
2018-08-06T08:26:50.609Z,93.40
2018-08-06T08:29:20.051Z,93.00
2018-08-06T08:31:49.176Z,92.70
2018-08-06T08:34:18.442Z,92.80
2018-08-06T08:36:47.921Z,92.10
2018-08-06T08:39:17.507Z,91.60
2018-08-06T08:41:47.002Z,92.00
2018-08-06T08:44:16.259Z,91.90
2018-08-06T08:46:45.422Z,91.70
2018-08-06T08:49:14.867Z,91.10
2018-08-06T08:54:12.682Z,90.60
2018-08-06T08:59:10.965Z,91.10
2018-08-06T09:01:40.074Z,91.20
2018-08-06T09:04:09.475Z,91.20
2018-08-06T09:06:38.571Z,90.90
2018-08-06T09:09:10.898Z,90.40
2018-08-06T09:11:40.541Z,90.10
2018-08-06T09:14:09.706Z,89.70
2018-08-06T09:16:39.045Z,89.70
2018-08-06T09:19:08.216Z,90.00
2018-08-06T09:21:37.355Z,88.50
2018-08-06T09:24:06.734Z,89.60
2018-08-06T09:26:36.100Z,87.50
2018-08-06T09:29:05.364Z,87.40
2018-08-06T09:31:34.839Z,88.40
2018-08-06T09:34:04.345Z,87.00
2018-08-06T09:36:33.634Z,87.30
2018-08-06T09:39:03.167Z,87.40
2018-08-06T09:41:32.740Z,87.70
2018-08-06T09:44:02.122Z,86.70
2018-08-06T09:46:31.254Z,86.50
2018-08-06T09:49:00.517Z,86.40
2018-08-06T09:51:29.858Z,86.20
2018-08-06T09:53:59.063Z,87.00
2018-08-06T09:56:28.275Z,87.50
2018-08-06T09:58:57.546Z,85.40
2018-08-06T10:01:31.965Z,86.40
2018-08-06T10:04:01.077Z,85.10
2018-08-06T10:06:30.595Z,85.40
2018-08-06T10:08:59.963Z,83.90
2018-08-06T10:11:29.582Z,86.90
2018-08-06T10:13:59.070Z,84.00
2018-08-06T10:16:28.484Z,82.50
2018-08-06T10:18:57.844Z,85.80
2018-08-06T10:21:27.162Z,83.40
2018-08-06T10:23:56.430Z,82.70
2018-08-06T10:26:25.716Z,84.00
2018-08-06T10:28:55.101Z,82.90
2018-08-06T10:31:24.727Z,83.60
2018-08-06T10:33:54.037Z,83.40
2018-08-06T10:36:23.497Z,83.90
2018-08-06T10:38:52.722Z,83.90
2018-08-06T10:41:22.081Z,83.10
2018-08-06T10:43:51.563Z,82.10
2018-08-06T10:48:49.500Z,81.30
2018-08-06T10:51:18.568Z,81.70
2018-08-06T10:53:47.882Z,80.20
2018-08-06T10:56:17.033Z,81.90
2018-08-06T10:58:46.307Z,81.30
2018-08-06T11:01:15.527Z,81.40
2018-08-06T11:03:44.894Z,81.60
2018-08-06T11:06:14.596Z,81.50
2018-08-06T11:08:43.827Z,81.00
2018-08-06T11:11:13.084Z,79.70
2018-08-06T11:13:42.191Z,81.40
2018-08-06T11:16:11.666Z,79.40
2018-08-06T11:18:40.839Z,77.60
2018-08-06T11:21:10.122Z,77.20
2018-08-06T11:23:39.341Z,76.90
2018-08-06T11:26:08.469Z,77.80
2018-08-06T11:28:37.932Z,76.50
2018-08-06T11:31:07.163Z,77.40
2018-08-06T11:33:36.562Z,78.00
2018-08-06T11:36:06.064Z,77.40
2018-08-06T11:38:35.329Z,78.00
2018-08-06T11:43:33.327Z,76.90
2018-08-06T11:46:02.487Z,76.20
2018-08-06T11:48:31.642Z,77.40
2018-08-06T11:51:00.766Z,75.60
2018-08-06T11:53:30.090Z,76.90
2018-08-06T11:55:59.166Z,74.90
2018-08-06T11:58:28.511Z,75.20
2018-08-06T12:00:57.749Z,75.00
2018-08-06T12:03:26.872Z,74.60
2018-08-06T12:05:56.404Z,73.40
2018-08-06T12:08:25.736Z,72.60
2018-08-06T12:10:54.913Z,72.70
2018-08-06T12:13:24.384Z,72.70
2018-08-06T12:15:53.731Z,72.90
2018-08-06T12:18:22.872Z,70.00
2018-08-06T12:20:52.079Z,70.80
2018-08-06T12:23:21.287Z,70.50
2018-08-06T12:28:19.259Z,69.40
2018-08-06T12:30:48.456Z,69.10
2018-08-06T12:33:17.733Z,68.60
2018-08-06T12:35:46.984Z,68.80
2018-08-06T12:38:16.108Z,70.20
2018-08-06T12:40:45.584Z,70.40
2018-08-06T12:43:15.000Z,70.60
2018-08-06T12:45:44.329Z,68.80
2018-08-06T12:48:13.525Z,67.60
2018-08-06T12:50:42.687Z,67.60
2018-08-06T12:53:11.903Z,68.80
2018-08-06T12:58:11.054Z,67.40
2018-08-06T13:00:41.738Z,68.20
2018-08-06T13:03:10.984Z,66.90
2018-08-06T13:05:40.296Z,67.60
2018-08-06T13:08:09.479Z,66.50
2018-08-06T13:10:38.670Z,66.50
2018-08-06T13:13:07.920Z,67.00
2018-08-06T13:15:37.119Z,66.40
2018-08-06T13:18:06.823Z,67.20
2018-08-06T13:20:35.897Z,67.90
2018-08-06T13:23:05.163Z,66.30
2018-08-06T13:25:34.454Z,67.20
2018-08-06T13:28:03.960Z,66.10
2018-08-06T13:30:33.112Z,65.00
2018-08-06T13:33:02.625Z,62.70
2018-08-06T13:35:31.803Z,62.90
2018-08-06T13:38:00.889Z,63.80
2018-08-06T13:40:30.041Z,62.70
2018-08-06T13:42:59.198Z,63.40
2018-08-06T13:45:28.403Z,64.20
2018-08-06T13:47:57.527Z,62.50
2018-08-06T13:50:26.845Z,63.70
2018-08-06T13:52:56.062Z,61.90
2018-08-06T13:55:25.164Z,61.50
2018-08-06T13:57:54.533Z,60.30
2018-08-06T14:00:24.078Z,60.10
2018-08-06T14:02:53.355Z,59.40
2018-08-06T14:05:22.573Z,60.70
2018-08-06T14:07:51.995Z,58.90
2018-08-06T14:10:21.412Z,59.60
2018-08-06T14:12:50.852Z,58.00
2018-08-06T14:15:20.055Z,57.90
2018-08-06T14:17:49.808Z,56.60
2018-08-06T14:20:19.428Z,58.70
2018-08-06T14:22:48.935Z,57.40
2018-08-06T14:25:18.483Z,57.90
2018-08-06T14:27:47.905Z,58.40
2018-08-06T14:30:17.722Z,59.40
2018-08-06T14:32:47.215Z,58.10
2018-08-06T14:35:16.897Z,58.30
2018-08-06T14:37:46.192Z,59.10
2018-08-06T14:40:17.956Z,57.30
2018-08-06T14:45:16.703Z,57.20
2018-08-06T14:47:45.876Z,59.00
2018-08-06T14:50:15.780Z,56.90
2018-08-06T14:52:45.023Z,58.20
2018-08-06T14:55:14.307Z,58.40
2018-08-06T14:57:43.590Z,58.20
2018-08-06T15:00:16.282Z,57.30
2018-08-06T15:02:45.832Z,56.60
2018-08-06T15:05:15.062Z,57.90
2018-08-06T15:07:44.399Z,57.80
2018-08-06T15:10:14.178Z,57.50
2018-08-06T15:12:43.657Z,57.40
2018-08-06T15:15:15.143Z,57.30
2018-08-06T15:17:44.899Z,57.80
2018-08-06T15:20:15.687Z,58.70
2018-08-06T15:22:45.261Z,57.30
2018-08-06T15:25:20.404Z,58.70
2018-08-06T15:27:50.619Z,58.00
2018-08-06T15:30:20.243Z,57.90
2018-08-06T15:32:49.517Z,57.80
2018-08-06T15:35:18.708Z,57.50
2018-08-06T15:37:47.993Z,58.00
2018-08-06T15:40:19.242Z,58.20
2018-08-06T15:42:48.479Z,58.20
2018-08-06T15:45:17.682Z,58.10
2018-08-06T15:47:47.143Z,58.00
2018-08-06T15:50:18.562Z,57.70
2018-08-06T15:52:48.090Z,58.50
2018-08-06T15:55:17.440Z,58.80
2018-08-06T15:57:46.707Z,59.10
2018-08-06T16:00:17.421Z,58.70
2018-08-06T16:02:46.970Z,58.60
2018-08-06T16:05:16.372Z,60.10
2018-08-06T16:07:45.971Z,60.70
2018-08-06T16:10:15.666Z,58.70
2018-08-06T16:12:45.015Z,58.70
2018-08-06T16:15:15.497Z,59.30
2018-08-06T16:17:45.292Z,58.70
2018-08-06T16:20:16.864Z,58.40
2018-08-06T16:22:46.056Z,58.10
2018-08-06T16:25:15.938Z,59.50
2018-08-06T16:30:16.363Z,61.20
2018-08-06T16:32:46.875Z,62.10
2018-08-06T16:35:17.842Z,60.00
2018-08-06T16:37:47.794Z,60.70
2018-08-06T16:40:17.074Z,63.70
2018-08-06T16:42:46.492Z,61.00
2018-08-06T16:45:15.937Z,59.60
2018-08-06T16:47:45.407Z,59.70
2018-08-06T16:50:16.717Z,59.40
2018-08-06T16:52:46.556Z,59.50
2018-08-06T16:55:15.787Z,58.50
2018-08-06T16:57:45.171Z,60.20
2018-08-06T17:00:16.933Z,60.90
2018-08-06T17:02:46.450Z,60.60
2018-08-06T17:05:16.265Z,61.70
2018-08-06T17:07:46.837Z,63.10
2018-08-06T17:10:17.501Z,61.70
2018-08-06T17:12:48.490Z,64.00
2018-08-06T17:15:19.104Z,61.20
2018-08-06T17:17:49.868Z,61.70
2018-08-06T17:22:50.964Z,62.90
2018-08-06T17:25:20.497Z,64.00
2018-08-06T17:27:49.771Z,64.00
2018-08-06T17:30:19.249Z,63.10
2018-08-06T17:35:17.476Z,64.10
2018-08-06T17:37:46.742Z,62.70
2018-08-06T17:40:17.742Z,63.20
2018-08-06T17:42:47.437Z,62.40
2018-08-06T17:47:47.204Z,63.40
2018-08-06T17:52:48.070Z,64.10
2018-08-06T17:55:18.530Z,62.60
2018-08-06T17:57:48.200Z,62.30
2018-08-06T18:00:18.077Z,62.40
2018-08-06T18:02:47.550Z,62.60
2018-08-06T18:05:17.512Z,62.10
2018-08-06T18:07:47.573Z,61.50
2018-08-06T18:10:17.758Z,61.80
2018-08-06T18:12:47.670Z,62.50
2018-08-06T18:15:17.304Z,62.00
2018-08-06T18:20:17.512Z,62.90
2018-08-06T18:22:46.760Z,62.50
2018-08-06T18:25:18.234Z,61.70
2018-08-06T18:27:48.824Z,62.50
2018-08-06T18:30:19.902Z,62.60
2018-08-06T18:32:49.392Z,62.50
2018-08-06T18:35:19.413Z,62.50
2018-08-06T18:37:48.912Z,63.10
2018-08-06T18:40:19.540Z,64.50
2018-08-06T18:42:49.186Z,65.90
2018-08-06T18:45:21.051Z,63.60
2018-08-06T18:47:51.267Z,64.00
2018-08-06T18:50:20.868Z,68.10
2018-08-06T18:52:50.505Z,67.20
2018-08-06T18:55:19.937Z,67.80
2018-08-06T18:57:49.373Z,69.90
2018-08-06T19:00:23.668Z,69.10
2018-08-06T19:02:53.301Z,70.60
2018-08-06T19:05:22.634Z,71.80
2018-08-06T19:07:52.300Z,74.00
2018-08-06T19:10:21.768Z,73.00
2018-08-06T19:12:56.550Z,75.40
2018-08-06T19:15:25.805Z,74.90
2018-08-06T19:18:00.373Z,77.00
2018-08-06T19:20:29.761Z,79.10
2018-08-06T19:22:59.033Z,79.60
2018-08-06T19:25:29.851Z,79.20
2018-08-06T19:27:59.370Z,80.30
2018-08-06T19:31:36.377Z,81.90
2018-08-06T19:34:05.670Z,81.40
2018-08-06T19:37:39.041Z,80.00
2018-08-06T19:40:09.967Z,82.30
2018-08-06T19:42:44.895Z,84.60
2018-08-06T19:45:14.577Z,84.10
2018-08-06T19:47:44.706Z,80.30
2018-08-06T19:50:19.300Z,81.90
2018-08-06T19:52:48.674Z,81.80
2018-08-06T19:55:23.465Z,81.90
2018-08-06T19:57:52.853Z,82.00
2018-08-06T20:00:22.095Z,87.20
2018-08-06T20:02:51.661Z,85.60
2018-08-06T20:05:20.847Z,86.10
2018-08-06T20:07:50.273Z,87.90
2018-08-06T20:10:19.868Z,87.90
2018-08-06T20:12:49.303Z,89.40
2018-08-06T20:15:19.816Z,90.00
2018-08-06T20:17:49.989Z,91.00
2018-08-06T20:20:19.467Z,90.20
2018-08-06T20:22:48.713Z,92.20
2018-08-06T20:25:19.415Z,92.80
2018-08-06T20:27:49.396Z,92.00
2018-08-06T20:30:20.502Z,92.20
2018-08-06T20:32:50.293Z,92.20
2018-08-06T20:35:20.004Z,92.30
2018-08-06T20:37:49.194Z,92.30
2018-08-06T20:42:47.940Z,93.20
2018-08-06T20:45:18.821Z,93.40
2018-08-06T20:47:48.762Z,93.30
2018-08-06T20:50:19.769Z,93.40
2018-08-06T20:52:50.271Z,93.90
2018-08-06T20:55:19.631Z,94.40
2018-08-06T20:57:49.523Z,94.70
2018-08-06T21:00:22.094Z,95.10
2018-08-06T21:02:51.813Z,95.20
2018-08-06T21:05:21.213Z,94.80
2018-08-06T21:07:50.722Z,94.80
2018-08-06T21:10:20.560Z,95.20
2018-08-06T21:12:52.903Z,94.60
2018-08-06T21:15:22.235Z,94.80
2018-08-06T21:17:51.493Z,96.40
2018-08-06T21:20:20.741Z,95.90
2018-08-06T21:22:50.444Z,95.90
2018-08-06T21:25:19.620Z,95.90
2018-08-06T21:27:49.449Z,95.70
2018-08-06T21:30:20.888Z,96.60
2018-08-06T21:32:52.390Z,96.70
2018-08-06T21:35:22.591Z,96.60
2018-08-06T21:37:52.789Z,96.10
2018-08-06T21:40:22.919Z,96.60
2018-08-06T21:42:52.391Z,96.10
2018-08-06T21:45:21.893Z,96.80
2018-08-06T21:47:51.572Z,97.10
2018-08-06T21:50:20.969Z,97.10
2018-08-06T21:52:50.291Z,97.20
2018-08-06T21:55:20.084Z,97.30
2018-08-06T21:57:49.338Z,97.40
2018-08-06T22:00:27.065Z,97.80
2018-08-06T22:02:56.491Z,98.40
2018-08-06T22:07:54.473Z,98.50
2018-08-06T22:10:23.854Z,98.00
2018-08-06T22:12:53.123Z,98.00
2018-08-06T22:15:22.466Z,98.20
2018-08-06T22:17:51.710Z,98.70
2018-08-06T22:20:20.902Z,98.40
2018-08-06T22:22:50.217Z,98.30
2018-08-06T22:25:19.599Z,98.80
2018-08-06T22:27:48.729Z,98.80
2018-08-06T22:30:17.985Z,98.80
2018-08-06T22:32:47.152Z,99.30
2018-08-06T22:35:16.414Z,99.50
2018-08-06T22:37:45.821Z,98.60
2018-08-06T22:40:15.010Z,98.80
2018-08-06T22:42:44.136Z,99.00
2018-08-06T22:45:13.642Z,99.90
2018-08-06T22:47:43.463Z,99.90
2018-08-06T22:50:13.879Z,99.90
2018-08-06T22:52:43.281Z,99.90
2018-08-06T22:55:13.263Z,99.90
2018-08-06T22:57:43.153Z,99.90
2018-08-06T23:00:15.003Z,99.90
2018-08-06T23:02:44.664Z,99.90
2018-08-06T23:05:15.702Z,99.90
2018-08-06T23:07:45.433Z,99.90
2018-08-06T23:10:16.576Z,99.90
2018-08-06T23:12:45.858Z,99.90
2018-08-06T23:15:16.196Z,99.90
2018-08-06T23:17:45.967Z,99.90
2018-08-06T23:20:15.102Z,99.90
2018-08-06T23:22:44.497Z,99.90
2018-08-06T23:25:13.854Z,99.90
2018-08-06T23:27:43.124Z,99.90
2018-08-06T23:30:14.912Z,99.90
2018-08-06T23:32:44.413Z,99.90
2018-08-06T23:35:14.246Z,99.90
2018-08-06T23:37:44.893Z,99.90
2018-08-06T23:40:14.906Z,99.90
2018-08-06T23:42:44.390Z,99.90
2018-08-06T23:45:14.767Z,99.90
2018-08-06T23:47:44.341Z,99.90
2018-08-06T23:50:14.972Z,99.90
2018-08-06T23:52:45.387Z,99.90
2018-08-06T23:55:16.543Z,99.90
2018-08-06T23:57:45.822Z,99.90
